createdAt,value
2019-02-15T00:00:01.183Z,97412.39
2019-02-15T00:02:49.390Z,97402.95
2019-02-15T00:05:37.452Z,97402.57
2019-02-15T00:08:25.043Z,97401.03
2019-02-15T00:11:12.980Z,97396.84
2019-02-15T00:14:01.313Z,97400.33
2019-02-15T00:16:49.191Z,97393.42
2019-02-15T00:19:40.954Z,97398.36
2019-02-15T00:22:29.201Z,97404.34
2019-02-15T00:25:17.028Z,97398.55
2019-02-15T00:28:04.913Z,97390.14
2019-02-15T00:30:52.845Z,97401.09
2019-02-15T00:33:41.108Z,97406.02
2019-02-15T00:36:28.690Z,97396.43
2019-02-15T00:39:16.472Z,97403.26
2019-02-15T00:42:04.534Z,97395.94
2019-02-15T00:44:52.431Z,97395.81
2019-02-15T00:47:43.892Z,97394.48
2019-02-15T00:50:56.529Z,97385.27
2019-02-15T00:53:52.604Z,97380.38
2019-02-15T00:57:08.847Z,97378.23
2019-02-15T01:00:15.791Z,97385.00
2019-02-15T01:03:28.440Z,97379.61
2019-02-15T01:06:44.710Z,97378.37
2019-02-15T01:09:46.632Z,97377.16
2019-02-15T01:12:40.289Z,97381.59
2019-02-15T01:15:28.350Z,97379.58
2019-02-15T01:18:15.942Z,97387.28
2019-02-15T01:21:03.757Z,97386.27
2019-02-15T01:23:51.934Z,97389.11
2019-02-15T01:26:42.436Z,97388.91
2019-02-15T01:29:52.247Z,97386.23
2019-02-15T01:32:51.882Z,97389.81
2019-02-15T01:35:54.292Z,97383.58
2019-02-15T01:39:04.290Z,97390.15
2019-02-15T01:42:23.198Z,97378.58
2019-02-15T01:45:23.844Z,97378.92
2019-02-15T01:48:12.250Z,97370.22
2019-02-15T01:51:00.331Z,97373.81
2019-02-15T01:53:48.726Z,97379.42
2019-02-15T01:56:36.364Z,97371.16
2019-02-15T01:59:24.808Z,97370.92
2019-02-15T02:02:12.677Z,97367.50
2019-02-15T02:05:00.817Z,97361.66
2019-02-15T02:07:49.172Z,97353.95
2019-02-15T02:10:37.153Z,97356.75
2019-02-15T02:13:24.800Z,97354.03
2019-02-15T02:16:12.985Z,97348.47
2019-02-15T02:19:00.513Z,97346.33
2019-02-15T02:21:48.669Z,97342.32
2019-02-15T02:24:36.480Z,97340.44
2019-02-15T02:27:24.638Z,97336.09
2019-02-15T02:30:12.612Z,97337.26
2019-02-15T02:33:00.629Z,97330.91
2019-02-15T02:35:48.893Z,97332.09
2019-02-15T02:38:36.776Z,97339.59
2019-02-15T02:41:24.356Z,97334.31
2019-02-15T02:44:12.331Z,97339.25
2019-02-15T02:47:00.267Z,97347.87
2019-02-15T02:49:48.599Z,97339.33
2019-02-15T02:52:36.128Z,97329.77
2019-02-15T02:55:24.342Z,97336.59
2019-02-15T02:58:12.168Z,97335.31
2019-02-15T03:01:00.059Z,97338.68
2019-02-15T03:03:47.868Z,97344.01
2019-02-15T03:06:35.792Z,97341.41
2019-02-15T03:09:23.347Z,97339.86
2019-02-15T03:12:11.516Z,97340.69
2019-02-15T03:14:59.670Z,97347.92
2019-02-15T03:17:47.623Z,97344.11
2019-02-15T03:20:35.555Z,97340.86
2019-02-15T03:23:23.397Z,97345.30
2019-02-15T03:26:11.306Z,97353.06
2019-02-15T03:28:59.436Z,97345.39
2019-02-15T03:31:47.500Z,97343.83
2019-02-15T03:34:36.511Z,97346.05
2019-02-15T03:38:01.694Z,97336.70
2019-02-15T03:40:52.996Z,97341.39
2019-02-15T03:43:41.050Z,97348.24
2019-02-15T03:46:29.148Z,97341.75
2019-02-15T03:49:17.289Z,97340.30
2019-02-15T03:52:05.373Z,97340.73
2019-02-15T03:54:53.753Z,97344.44
2019-02-15T03:57:41.549Z,97345.75
2019-02-15T04:00:29.538Z,97343.23
2019-02-15T04:03:17.067Z,97341.45
2019-02-15T04:06:05.047Z,97343.23
2019-02-15T04:08:53.348Z,97339.90
2019-02-15T04:11:41.445Z,97344.44
2019-02-15T04:14:32.759Z,97337.98
2019-02-15T04:17:21.870Z,97345.61
2019-02-15T04:20:10.010Z,97344.44
2019-02-15T04:22:58.190Z,97341.59
2019-02-15T04:25:46.170Z,97346.24
2019-02-15T04:28:34.154Z,97338.55
2019-02-15T04:31:21.994Z,97347.68
2019-02-15T04:34:09.840Z,97347.23
2019-02-15T04:36:58.212Z,97347.41
2019-02-15T04:39:46.542Z,97346.79
2019-02-15T04:42:34.233Z,97353.61
2019-02-15T04:45:22.109Z,97353.91
2019-02-15T04:48:10.300Z,97361.17
2019-02-15T04:50:58.841Z,97361.70
2019-02-15T04:53:46.894Z,97362.21
2019-02-15T04:56:34.479Z,97355.73
2019-02-15T04:59:22.339Z,97359.44
2019-02-15T05:02:10.314Z,97358.70
2019-02-15T05:04:58.225Z,97355.59
2019-02-15T05:07:46.099Z,97349.65
2019-02-15T05:10:34.365Z,97346.09
2019-02-15T05:13:22.798Z,97349.09
2019-02-15T05:16:10.996Z,97352.04
2019-02-15T05:18:59.150Z,97351.20
2019-02-15T05:21:46.681Z,97350.91
2019-02-15T05:24:35.034Z,97347.59
2019-02-15T05:27:22.927Z,97350.08
2019-02-15T05:30:11.176Z,97357.43
2019-02-15T05:32:59.360Z,97360.94
2019-02-15T05:35:47.411Z,97366.28
2019-02-15T05:38:35.074Z,97360.34
2019-02-15T05:41:22.933Z,97358.11
2019-02-15T05:44:10.885Z,97363.01
2019-02-15T05:46:59.052Z,97358.84
2019-02-15T05:49:47.139Z,97363.24
2019-02-15T05:52:35.378Z,97362.56
2019-02-15T05:55:23.504Z,97360.00
2019-02-15T05:58:11.870Z,97371.61
2019-02-15T06:01:00.389Z,97373.97
2019-02-15T06:03:48.347Z,97374.30
2019-02-15T06:06:36.263Z,97368.36
2019-02-15T06:09:24.549Z,97373.37
2019-02-15T06:12:12.605Z,97372.14
2019-02-15T06:15:00.411Z,97371.69
2019-02-15T06:17:48.805Z,97376.20
2019-02-15T06:20:36.952Z,97376.73
2019-02-15T06:23:24.662Z,97381.10
2019-02-15T06:26:12.555Z,97375.83
2019-02-15T06:29:00.634Z,97366.73
2019-02-15T06:31:49.168Z,97367.77
2019-02-15T06:34:37.159Z,97384.50
2019-02-15T06:37:25.282Z,97376.73
2019-02-15T06:40:13.203Z,97378.07
2019-02-15T06:43:01.213Z,97381.17
2019-02-15T06:45:49.416Z,97386.72
2019-02-15T06:48:37.022Z,97385.98
2019-02-15T06:51:25.075Z,97393.84
2019-02-15T06:54:13.163Z,97387.42
2019-02-15T06:57:01.178Z,97394.69
2019-02-15T07:00:06.842Z,97396.19
2019-02-15T07:02:59.415Z,97396.22
2019-02-15T07:05:47.380Z,97403.29
2019-02-15T07:08:35.223Z,97407.91
2019-02-15T07:11:23.572Z,97409.03
2019-02-15T07:14:11.841Z,97421.40
2019-02-15T07:16:59.887Z,97413.77
2019-02-15T07:19:48.083Z,97418.50
2019-02-15T07:22:36.380Z,97420.18
2019-02-15T07:25:24.435Z,97423.72
2019-02-15T07:28:12.237Z,97421.47
2019-02-15T07:31:00.181Z,97418.77
2019-02-15T07:33:48.627Z,97424.91
2019-02-15T07:36:36.759Z,97431.39
2019-02-15T07:39:24.955Z,97424.05
2019-02-15T07:42:13.169Z,97423.58
2019-02-15T07:45:01.040Z,97426.75
2019-02-15T07:47:49.011Z,97427.20
2019-02-15T07:50:36.807Z,97426.83
2019-02-15T07:53:24.363Z,97429.97
2019-02-15T07:56:12.479Z,97421.89
2019-02-15T07:59:00.515Z,97426.09
2019-02-15T08:01:48.375Z,97429.76
2019-02-15T08:04:36.347Z,97421.61
2019-02-15T08:07:24.528Z,97419.03
2019-02-15T08:10:12.634Z,97415.67
2019-02-15T08:13:00.491Z,97419.90
2019-02-15T08:15:52.022Z,97406.64
2019-02-15T08:18:37.647Z,97414.53
2019-02-15T08:21:25.564Z,97416.06
2019-02-15T08:24:13.826Z,97411.60
2019-02-15T08:27:01.803Z,97414.86
2019-02-15T08:29:49.787Z,97414.44
2019-02-15T08:32:37.717Z,97409.33
2019-02-15T08:35:25.933Z,97411.84
2019-02-15T08:38:14.023Z,97408.59
2019-02-15T08:41:02.025Z,97409.20
2019-02-15T08:43:49.992Z,97404.64
2019-02-15T08:46:38.365Z,97407.79
2019-02-15T08:49:26.152Z,97412.19
2019-02-15T08:52:14.788Z,97408.27
2019-02-15T08:55:03.010Z,97409.87
2019-02-15T08:57:51.135Z,97407.81
2019-02-15T09:00:39.276Z,97408.20
2019-02-15T09:03:27.345Z,97407.42
2019-02-15T09:06:15.430Z,97404.72
2019-02-15T09:09:05.101Z,97406.68
2019-02-15T09:11:52.929Z,97397.84
2019-02-15T09:14:41.236Z,97399.63
2019-02-15T09:17:29.358Z,97396.92
2019-02-15T09:20:17.498Z,97397.09
2019-02-15T09:23:05.781Z,97397.02
2019-02-15T09:25:53.651Z,97403.34
2019-02-15T09:28:46.216Z,97403.06
2019-02-15T09:31:34.103Z,97404.69
2019-02-15T09:34:21.900Z,97397.80
2019-02-15T09:37:09.923Z,97405.00
2019-02-15T09:39:57.784Z,97400.61
2019-02-15T09:42:45.678Z,97400.63
2019-02-15T09:45:33.263Z,97392.69
2019-02-15T09:48:20.996Z,97388.10
2019-02-15T09:51:09.275Z,97388.66
2019-02-15T09:53:57.550Z,97390.84
2019-02-15T09:56:45.757Z,97392.80
2019-02-15T09:59:33.858Z,97399.58
2019-02-15T10:02:21.744Z,97399.34
2019-02-15T10:05:09.499Z,97396.16
2019-02-15T10:07:57.613Z,97395.13
2019-02-15T10:10:45.816Z,97394.31
2019-02-15T10:13:34.003Z,97394.53
2019-02-15T10:16:28.623Z,97396.77
2019-02-15T10:19:11.565Z,97404.21
2019-02-15T10:21:59.593Z,97398.51
2019-02-15T10:24:48.503Z,97393.50
2019-02-15T10:27:36.099Z,97391.95
2019-02-15T10:30:24.172Z,97393.56
2019-02-15T10:33:12.142Z,97393.02
2019-02-15T10:36:00.352Z,97385.41
2019-02-15T10:38:48.064Z,97384.36
2019-02-15T10:41:36.250Z,97378.48
2019-02-15T10:44:26.183Z,97382.02
2019-02-15T10:47:22.953Z,97372.56
2019-02-15T10:50:05.170Z,97370.38
2019-02-15T10:52:53.340Z,97376.59
2019-02-15T10:55:41.422Z,97374.97
2019-02-15T10:58:29.410Z,97364.70
2019-02-15T11:01:17.593Z,97366.05
2019-02-15T11:04:05.425Z,97364.70
2019-02-15T11:06:53.041Z,97361.77
2019-02-15T11:09:40.911Z,97352.02
2019-02-15T11:12:29.167Z,97346.89
2019-02-15T11:15:17.279Z,97346.58
2019-02-15T11:18:05.472Z,97348.22
2019-02-15T11:20:53.625Z,97343.54
2019-02-15T11:23:41.895Z,97341.65
2019-02-15T11:26:29.920Z,97343.70
2019-02-15T11:29:18.326Z,97327.16
2019-02-15T11:32:06.730Z,97326.61
2019-02-15T11:34:54.921Z,97323.63
2019-02-15T11:37:42.893Z,97318.11
2019-02-15T11:40:31.180Z,97314.08
2019-02-15T11:43:19.321Z,97318.59
2019-02-15T11:46:07.579Z,97310.59
2019-02-15T11:48:55.181Z,97304.56
2019-02-15T11:51:43.222Z,97297.53
2019-02-15T11:54:31.450Z,97299.08
2019-02-15T11:57:19.300Z,97292.73
2019-02-15T12:00:14.315Z,97284.30
2019-02-15T12:02:58.903Z,97283.77
2019-02-15T12:05:47.108Z,97272.52
2019-02-15T12:08:35.197Z,97270.08
2019-02-15T12:11:23.226Z,97269.72
2019-02-15T12:14:10.839Z,97271.44
2019-02-15T12:17:05.508Z,97268.62
2019-02-15T12:19:48.848Z,97262.39
2019-02-15T12:22:37.123Z,97259.84
2019-02-15T12:25:25.687Z,97258.56
2019-02-15T12:28:13.525Z,97256.72
2019-02-15T12:31:01.522Z,97251.23
2019-02-15T12:33:49.498Z,97240.87
2019-02-15T12:36:37.685Z,97248.61
2019-02-15T12:39:25.581Z,97246.95
2019-02-15T12:42:13.471Z,97240.93
2019-02-15T12:45:01.403Z,97230.56
2019-02-15T12:47:49.065Z,97232.36
2019-02-15T12:50:37.182Z,97225.84
2019-02-15T12:53:24.722Z,97222.55
2019-02-15T12:56:12.838Z,97215.26
2019-02-15T12:59:00.981Z,97214.03
2019-02-15T13:01:48.773Z,97208.39
2019-02-15T13:04:36.612Z,97212.45
2019-02-15T13:07:24.845Z,97204.96
2019-02-15T13:10:15.349Z,97203.86
2019-02-15T13:13:03.542Z,97209.39
2019-02-15T13:15:51.317Z,97199.00
2019-02-15T13:18:39.909Z,97198.48
2019-02-15T13:21:27.997Z,97196.13
2019-02-15T13:24:16.029Z,97192.53
2019-02-15T13:27:03.922Z,97188.88
2019-02-15T13:29:51.504Z,97178.80
2019-02-15T13:32:39.622Z,97178.23
2019-02-15T13:35:28.054Z,97171.77
2019-02-15T13:38:15.982Z,97164.69
2019-02-15T13:41:03.825Z,97163.42
2019-02-15T13:43:51.623Z,97163.23
2019-02-15T13:46:39.741Z,97161.06
2019-02-15T13:49:27.609Z,97161.95
2019-02-15T13:52:15.651Z,97167.78
2019-02-15T13:55:03.493Z,97161.44
2019-02-15T13:57:52.007Z,97159.69
2019-02-15T14:00:39.950Z,97155.54
2019-02-15T14:03:27.826Z,97147.53
2019-02-15T14:06:15.780Z,97149.46
2019-02-15T14:09:05.076Z,97154.83
2019-02-15T14:11:53.068Z,97148.19
2019-02-15T14:14:40.928Z,97147.28
2019-02-15T14:17:28.814Z,97137.72
2019-02-15T14:20:16.817Z,97134.02
2019-02-15T14:23:05.241Z,97134.75
2019-02-15T14:25:53.064Z,97136.53
2019-02-15T14:28:41.187Z,97133.36
2019-02-15T14:31:28.790Z,97130.30
2019-02-15T14:34:16.689Z,97127.81
2019-02-15T14:37:04.506Z,97128.88
2019-02-15T14:39:52.604Z,97129.34
2019-02-15T14:42:40.616Z,97122.59
2019-02-15T14:45:28.650Z,97119.53
2019-02-15T14:48:16.834Z,97118.23
2019-02-15T14:51:04.515Z,97117.10
2019-02-15T14:53:52.687Z,97112.13
2019-02-15T14:56:40.334Z,97112.91
2019-02-15T14:59:28.403Z,97108.76
2019-02-15T15:02:16.333Z,97111.22
2019-02-15T15:05:04.580Z,97104.63
2019-02-15T15:07:52.226Z,97096.91
2019-02-15T15:10:40.171Z,97101.83
2019-02-15T15:13:28.239Z,97103.78
2019-02-15T15:16:17.772Z,97097.90
2019-02-15T15:19:05.861Z,97092.21
2019-02-15T15:21:53.840Z,97091.56
2019-02-15T15:24:42.084Z,97091.36
2019-02-15T15:27:30.031Z,97096.28
2019-02-15T15:30:18.475Z,97095.06
2019-02-15T15:33:06.722Z,97099.57
2019-02-15T15:35:54.658Z,97091.48
2019-02-15T15:38:42.642Z,97090.66
2019-02-15T15:41:30.794Z,97085.37
2019-02-15T15:44:19.054Z,97082.73
2019-02-15T15:47:07.450Z,97082.87
2019-02-15T15:49:55.312Z,97079.13
2019-02-15T15:52:43.643Z,97075.63
2019-02-15T15:55:31.794Z,97080.23
2019-02-15T15:58:20.023Z,97077.48
2019-02-15T16:01:07.831Z,97076.66
2019-02-15T16:03:55.439Z,97079.41
2019-02-15T16:06:43.778Z,97084.16
2019-02-15T16:09:32.657Z,97077.70
2019-02-15T16:12:20.535Z,97078.77
2019-02-15T16:15:09.620Z,97077.30
2019-02-15T16:17:57.841Z,97079.96
2019-02-15T16:20:45.850Z,97076.78
2019-02-15T16:23:33.878Z,97078.74
2019-02-15T16:26:22.102Z,97082.44
2019-02-15T16:29:10.374Z,97085.83
2019-02-15T16:31:58.376Z,97082.63
2019-02-15T16:34:46.448Z,97092.11
2019-02-15T16:37:34.013Z,97087.92
2019-02-15T16:40:22.117Z,97084.30
2019-02-15T16:43:10.058Z,97079.48
2019-02-15T16:45:58.131Z,97084.25
2019-02-15T16:48:45.877Z,97086.75
2019-02-15T16:51:34.069Z,97094.67
2019-02-15T16:54:21.658Z,97092.86
2019-02-15T16:57:09.426Z,97093.12
2019-02-15T16:59:57.614Z,97099.73
2019-02-15T17:02:45.350Z,97099.48
2019-02-15T17:05:33.784Z,97102.78
2019-02-15T17:08:21.687Z,97098.42
2019-02-15T17:11:09.961Z,97098.79
2019-02-15T17:13:59.857Z,97104.95
2019-02-15T17:16:48.278Z,97113.08
2019-02-15T17:19:36.142Z,97106.45
2019-02-15T17:22:24.203Z,97106.19
2019-02-15T17:25:13.331Z,97111.05
2019-02-15T17:28:01.259Z,97109.98
2019-02-15T17:30:49.134Z,97111.63
2019-02-15T17:33:37.126Z,97111.39
2019-02-15T17:36:25.008Z,97108.45
2019-02-15T17:39:12.638Z,97112.00
2019-02-15T17:42:00.770Z,97110.38
2019-02-15T17:44:48.842Z,97104.45
2019-02-15T17:47:36.785Z,97105.47
2019-02-15T17:50:24.910Z,97108.97
2019-02-15T17:53:12.724Z,97109.46
2019-02-15T17:56:00.283Z,97111.59
2019-02-15T17:58:48.721Z,97103.09
2019-02-15T18:01:36.618Z,97105.52
2019-02-15T18:04:24.747Z,97102.28
2019-02-15T18:07:12.844Z,97103.69
2019-02-15T18:10:00.791Z,97095.89
2019-02-15T18:12:48.682Z,97096.67
2019-02-15T18:15:36.524Z,97101.25
2019-02-15T18:18:24.460Z,97098.30
2019-02-15T18:21:12.357Z,97091.28
2019-02-15T18:24:00.726Z,97094.00
2019-02-15T18:26:49.327Z,97092.33
2019-02-15T18:29:37.406Z,97085.32
2019-02-15T18:32:25.562Z,97087.23
2019-02-15T18:35:13.458Z,97085.62
2019-02-15T18:38:01.767Z,97077.05
2019-02-15T18:40:50.430Z,97085.89
2019-02-15T18:43:38.296Z,97080.52
2019-02-15T18:46:25.952Z,97088.88
2019-02-15T18:49:19.425Z,97091.27
2019-02-15T18:52:03.575Z,97094.78
2019-02-15T18:54:52.092Z,97089.92
2019-02-15T18:57:40.657Z,97086.95
2019-02-15T19:00:28.673Z,97089.39
2019-02-15T19:03:17.175Z,97080.48
2019-02-15T19:06:04.758Z,97087.77
2019-02-15T19:08:53.177Z,97081.33
2019-02-15T19:11:41.061Z,97081.56
2019-02-15T19:14:29.123Z,97082.39
2019-02-15T19:17:17.080Z,97080.51
2019-02-15T19:20:05.445Z,97081.27
2019-02-15T19:22:53.582Z,97078.05
2019-02-15T19:25:41.734Z,97076.19
2019-02-15T19:28:29.524Z,97071.59
2019-02-15T19:31:17.403Z,97074.28
2019-02-15T19:34:05.283Z,97071.07
2019-02-15T19:36:53.854Z,97073.45
2019-02-15T19:39:41.851Z,97066.47
2019-02-15T19:42:30.000Z,97074.83
2019-02-15T19:45:18.301Z,97073.78
2019-02-15T19:48:06.285Z,97071.05
2019-02-15T19:50:54.540Z,97072.91
2019-02-15T19:53:42.761Z,97071.00
2019-02-15T19:56:30.665Z,97072.05
2019-02-15T19:59:18.313Z,97070.95
2019-02-15T20:02:06.204Z,97069.60
2019-02-15T20:04:53.800Z,97070.12
2019-02-15T20:07:41.979Z,97076.80
2019-02-15T20:10:30.273Z,97073.80
2019-02-15T20:13:18.488Z,97074.31
2019-02-15T20:16:06.690Z,97075.42
2019-02-15T20:18:54.791Z,97076.80
2019-02-15T20:21:42.675Z,97079.73
2019-02-15T20:24:30.752Z,97081.39
2019-02-15T20:27:18.665Z,97075.97
2019-02-15T20:30:09.791Z,97070.83
2019-02-15T20:32:57.921Z,97071.58
2019-02-15T20:35:46.135Z,97065.92
2019-02-15T20:38:34.539Z,97067.03
2019-02-15T20:41:22.769Z,97071.89
2019-02-15T20:44:10.595Z,97069.96
2019-02-15T20:46:59.122Z,97064.91
2019-02-15T20:49:47.146Z,97063.28
2019-02-15T20:52:35.244Z,97066.52
2019-02-15T20:55:23.345Z,97067.88
2019-02-15T20:58:11.517Z,97069.48
2019-02-15T21:01:00.331Z,97072.64
2019-02-15T21:03:48.326Z,97072.58
2019-02-15T21:06:36.276Z,97068.75
2019-02-15T21:09:24.074Z,97067.41
2019-02-15T21:12:11.902Z,97063.03
2019-02-15T21:14:59.993Z,97063.86
2019-02-15T21:17:48.085Z,97067.00
2019-02-15T21:20:35.959Z,97063.58
2019-02-15T21:23:24.295Z,97067.27
2019-02-15T21:26:11.813Z,97063.01
2019-02-15T21:29:00.016Z,97060.28
2019-02-15T21:31:47.831Z,97060.22
2019-02-15T21:34:36.211Z,97057.46
2019-02-15T21:37:23.994Z,97063.09
2019-02-15T21:40:13.364Z,97061.75
2019-02-15T21:43:01.525Z,97049.38
2019-02-15T21:45:49.527Z,97063.89
2019-02-15T21:48:37.627Z,97060.92
2019-02-15T21:51:25.503Z,97054.67
2019-02-15T21:54:13.827Z,97056.24
2019-02-15T21:57:01.833Z,97063.58
2019-02-15T21:59:50.537Z,97050.95
2019-02-15T22:02:38.101Z,97054.20
2019-02-15T22:05:25.779Z,97053.84
2019-02-15T22:08:13.719Z,97050.29
2019-02-15T22:11:02.281Z,97049.19
2019-02-15T22:13:50.191Z,97045.50
2019-02-15T22:16:38.139Z,97048.41
2019-02-15T22:19:25.806Z,97053.86
2019-02-15T22:22:13.760Z,97047.74
2019-02-15T22:25:01.881Z,97052.07
2019-02-15T22:27:49.803Z,97048.42
2019-02-15T22:30:37.970Z,97054.68
2019-02-15T22:33:25.630Z,97058.75
2019-02-15T22:36:13.487Z,97054.34
2019-02-15T22:39:01.379Z,97052.70
2019-02-15T22:41:49.634Z,97058.19
2019-02-15T22:44:37.538Z,97055.05
2019-02-15T22:47:25.054Z,97063.64
2019-02-15T22:50:13.126Z,97068.73
2019-02-15T22:53:01.199Z,97060.13
2019-02-15T22:55:49.494Z,97067.56
2019-02-15T22:58:37.700Z,97064.83
2019-02-15T23:01:25.986Z,97070.72
2019-02-15T23:04:14.003Z,97073.70
2019-02-15T23:07:03.225Z,97077.97
2019-02-15T23:09:51.277Z,97082.27
2019-02-15T23:12:39.375Z,97086.92
2019-02-15T23:15:27.058Z,97082.45
2019-02-15T23:18:15.289Z,97091.30
2019-02-15T23:21:03.217Z,97090.45
2019-02-15T23:23:50.990Z,97085.81
2019-02-15T23:26:38.910Z,97090.34
2019-02-15T23:29:27.113Z,97092.05
2019-02-15T23:32:15.067Z,97088.45
2019-02-15T23:35:03.360Z,97089.86
2019-02-15T23:37:51.147Z,97093.67
2019-02-15T23:40:38.978Z,97090.14
2019-02-15T23:43:26.801Z,97086.44
2019-02-15T23:46:14.715Z,97085.91
2019-02-15T23:49:02.633Z,97091.55
2019-02-15T23:51:50.806Z,97093.98
2019-02-15T23:54:38.919Z,97087.35
2019-02-15T23:57:27.029Z,97088.77
